Airfield :
LOGIN :

Register | Disclaimer

   EN    FR    IT 

 










Legend :    VFR   Marginal VFR   IFR   Intensive IFR   Very Intensive IFR
Visi :
Ceiling :
>= 8 km
>= 3000ft
5 to 8 km
1000 to 3000 ft
1500m to 5 km
500 to 1000 ft
800 to 1500m
200 to 500 ft
< 800m
< 200 ft
Symbols :   Thunderstorms  Fog  Heavy snow  Heavy precipitations  Wind > 20 kt
SIGMETs :     Misc.  Thunderstorms  Icing  Turbulence  Mountain Waves  Volcanic Ashes






- Airport Elevation : 330 ft
- IATA code : LVA


LFOV - Laval-Entrammes

CURRENT METAR :
  • 270500Z AUTO 00000KT 5000 +RA BR OVC003/// ///TCU 09/09 Q1009

EXPIRED METARs :
  • 270430Z AUTO VRB02KT 3800 -RA BR BKN003/// BKN024/// OVC029/// ///TCU 09/09 Q1010
  • 270400Z AUTO VRB03KT 6000 RA BKN004/// BKN008/// OVC018/// ///TCU 09/09 Q1010
  • 270330Z AUTO 21005KT 190V250 4700 RA BR FEW006/// BKN019/// OVC025/// ///TCU 09/09 Q1010
  • 270300Z AUTO 24006KT 200V270 6000 +RA BKN016/// BKN025/// OVC034/// ///TCU 09/09 Q1010
  • 270230Z AUTO 22006KT 190V250 3900 RA BR SCT006/// SCT018/// OVC026/// ///TCU 10/09 Q1011

TAF N/A



MET'MAP, your aeronautical weather chart ! - Copyright ORBIFLY December 2007 - Disclaimer

ORBIFLY MET'MAP TEAM :

Programming & Development : Alexandra Zaïnal
Concept & original design : Baudouin d'Aumeries
Assistance for programming : Marc-Olivier Méhu
Technical & hardware support : Manuel Goepfert

Contact : metmap@orbifly.com




SOURCES & CREDITS :

   NOAA